createdAt,value
2022-08-23T00:02:27.439Z,19.27
2022-08-23T00:05:08.441Z,19.25
2022-08-23T00:07:41.057Z,19.23
2022-08-23T00:10:15.997Z,19.23
2022-08-23T00:12:45.941Z,19.23
2022-08-23T00:15:17.111Z,19.20
2022-08-23T00:17:44.851Z,19.20
2022-08-23T00:20:17.004Z,19.18
2022-08-23T00:22:44.429Z,19.18
2022-08-23T00:25:14.288Z,19.15
2022-08-23T00:27:41.754Z,19.15
2022-08-23T00:30:13.124Z,19.13
2022-08-23T00:32:42.419Z,19.12
2022-08-23T00:35:12.386Z,19.11
2022-08-23T00:38:31.575Z,19.11
2022-08-23T00:40:36.225Z,19.10
2022-08-23T00:43:31.755Z,19.11
2022-08-23T00:46:46.719Z,19.09
2022-08-23T00:49:16.735Z,19.10
2022-08-23T00:52:03.628Z,19.11
2022-08-23T00:54:33.266Z,19.10
2022-08-23T00:57:05.699Z,19.10
2022-08-23T00:59:33.775Z,19.09
2022-08-23T01:02:01.884Z,19.08
2022-08-23T01:04:39.919Z,19.07
2022-08-23T01:07:35.107Z,19.07
2022-08-23T01:10:20.013Z,19.08
2022-08-23T01:12:58.468Z,19.08
2022-08-23T01:15:42.015Z,19.08
2022-08-23T01:18:15.000Z,19.07
2022-08-23T01:21:16.704Z,19.06
2022-08-23T01:23:49.507Z,19.07
2022-08-23T01:26:21.860Z,19.07
2022-08-23T01:28:52.241Z,19.06
2022-08-23T01:31:22.438Z,19.07
2022-08-23T01:34:05.009Z,19.05
2022-08-23T01:36:33.348Z,19.05
2022-08-23T01:39:01.070Z,19.05
2022-08-23T01:41:28.635Z,19.04
2022-08-23T01:43:55.840Z,19.04
2022-08-23T01:46:26.973Z,19.03
2022-08-23T01:48:55.685Z,19.04
2022-08-23T01:51:25.504Z,19.02
2022-08-23T01:53:53.196Z,19.04
2022-08-23T01:56:38.701Z,19.03
2022-08-23T01:59:13.345Z,19.01
2022-08-23T02:01:45.222Z,19.01
2022-08-23T02:04:12.726Z,19.02
2022-08-23T02:06:39.947Z,19.01
2022-08-23T02:09:17.306Z,18.99
2022-08-23T02:11:47.173Z,19.00
2022-08-23T02:14:20.686Z,19.00
2022-08-23T02:17:04.311Z,19.00
2022-08-23T02:19:38.354Z,18.98
2022-08-23T02:22:08.782Z,18.99
2022-08-23T02:24:45.058Z,18.99
2022-08-23T02:27:17.114Z,18.99
2022-08-23T02:29:47.452Z,18.98
2022-08-23T02:32:18.163Z,18.98
2022-08-23T02:34:51.048Z,18.98
2022-08-23T02:37:31.986Z,18.97
2022-08-23T02:39:59.154Z,18.98
2022-08-23T02:42:26.520Z,18.96
2022-08-23T02:44:54.554Z,18.96
2022-08-23T02:47:22.190Z,18.96
2022-08-23T02:50:10.168Z,18.95
2022-08-23T02:52:37.557Z,18.94
2022-08-23T02:55:07.666Z,18.93
2022-08-23T02:57:35.441Z,18.93
2022-08-23T03:00:11.448Z,18.93
2022-08-23T03:02:40.581Z,18.94
2022-08-23T03:05:09.951Z,18.93
2022-08-23T03:07:37.971Z,18.94
2022-08-23T03:10:07.451Z,18.93
2022-08-23T03:12:37.931Z,18.93
2022-08-23T03:15:06.834Z,18.91
2022-08-23T03:17:35.367Z,18.92
2022-08-23T03:20:06.082Z,18.92
2022-08-23T03:22:34.342Z,18.91
2022-08-23T03:25:02.060Z,18.91
2022-08-23T03:27:45.097Z,18.90
2022-08-23T03:30:17.775Z,18.91
2022-08-23T03:32:51.935Z,18.89
2022-08-23T03:35:19.843Z,18.90
2022-08-23T03:37:47.097Z,18.90
2022-08-23T03:40:16.282Z,18.88
2022-08-23T03:42:43.790Z,18.90
2022-08-23T03:45:11.843Z,18.88
2022-08-23T03:47:39.290Z,18.88
2022-08-23T03:50:07.755Z,18.88
2022-08-23T03:52:36.609Z,18.87
2022-08-23T03:55:04.469Z,18.86
2022-08-23T03:57:34.613Z,18.87
2022-08-23T04:00:06.381Z,18.84
2022-08-23T04:02:41.552Z,18.85
2022-08-23T04:05:12.359Z,18.84
2022-08-23T04:08:06.130Z,18.85
2022-08-23T04:10:33.450Z,18.85
2022-08-23T04:13:01.551Z,18.83
2022-08-23T04:15:29.306Z,18.85
2022-08-23T04:17:59.563Z,18.84
2022-08-23T04:20:27.794Z,18.85
2022-08-23T04:22:58.875Z,18.86
2022-08-23T04:25:33.627Z,18.86
2022-08-23T04:28:03.620Z,18.85
2022-08-23T04:30:33.368Z,18.86
2022-08-23T04:33:01.842Z,18.87
2022-08-23T04:35:30.971Z,18.87
2022-08-23T04:37:58.339Z,18.88
2022-08-23T04:40:45.279Z,18.89
2022-08-23T04:43:14.023Z,18.91
2022-08-23T04:45:42.137Z,18.91
2022-08-23T04:48:17.439Z,18.92
2022-08-23T04:50:49.616Z,18.93
2022-08-23T04:53:19.375Z,18.96
2022-08-23T04:55:56.929Z,18.98
2022-08-23T04:58:24.442Z,18.99
2022-08-23T05:00:53.239Z,19.01
2022-08-23T05:03:29.804Z,19.03
2022-08-23T05:05:58.810Z,19.05
2022-08-23T05:08:35.472Z,19.07
2022-08-23T05:11:07.786Z,19.10
2022-08-23T05:13:38.869Z,19.13
2022-08-23T05:16:08.770Z,19.16
2022-08-23T05:18:41.409Z,19.18
2022-08-23T05:21:18.915Z,19.21
2022-08-23T05:23:50.759Z,19.22
2022-08-23T05:26:22.343Z,19.26
2022-08-23T05:28:50.665Z,19.29
2022-08-23T05:31:27.497Z,19.32
2022-08-23T05:33:59.458Z,19.37
2022-08-23T05:36:47.622Z,19.40
2022-08-23T05:39:26.402Z,19.43
2022-08-23T05:42:03.285Z,19.45
2022-08-23T05:44:34.516Z,19.47
2022-08-23T05:47:10.705Z,19.52
2022-08-23T06:02:37.326Z,19.82
2022-08-23T06:05:06.870Z,19.86
2022-08-23T06:07:36.424Z,19.93
2022-08-23T06:10:05.665Z,20.00
2022-08-23T06:12:34.789Z,20.07
2022-08-23T06:15:03.108Z,20.11
2022-08-23T06:17:32.018Z,20.15
2022-08-23T06:19:59.973Z,20.22
2022-08-23T06:22:57.250Z,20.28
2022-08-23T06:25:24.603Z,20.31
2022-08-23T06:27:55.918Z,20.37
2022-08-23T06:30:24.113Z,20.47
2022-08-23T06:32:57.195Z,20.51
2022-08-23T06:35:43.173Z,20.58
2022-08-23T06:38:41.759Z,20.72
2022-08-23T06:41:22.917Z,20.82
2022-08-23T06:44:09.519Z,20.88
2022-08-23T06:46:57.544Z,20.97
2022-08-23T06:49:27.601Z,21.07
2022-08-23T06:51:57.943Z,21.12
2022-08-23T06:54:47.668Z,21.22
2022-08-23T06:57:32.791Z,21.32
2022-08-23T07:00:22.420Z,21.32
2022-08-23T07:03:11.912Z,21.36
2022-08-23T07:06:12.035Z,21.46
2022-08-23T07:08:40.358Z,21.58
2022-08-23T07:11:07.797Z,21.61
2022-08-23T07:13:40.698Z,21.65
2022-08-23T07:16:08.149Z,21.71
2022-08-23T07:18:35.861Z,21.86
2022-08-23T07:21:05.917Z,21.89
2022-08-23T07:23:35.013Z,21.97
2022-08-23T07:26:11.438Z,22.02
2022-08-23T07:28:41.622Z,22.08
2022-08-23T07:31:24.262Z,22.16
2022-08-23T07:33:51.788Z,22.26
2022-08-23T07:36:24.168Z,22.37
2022-08-23T07:38:53.671Z,22.46
2022-08-23T07:41:25.570Z,22.55
2022-08-23T07:43:55.136Z,22.66
2022-08-23T07:46:22.346Z,22.76
2022-08-23T07:48:58.603Z,22.91
2022-08-23T07:51:34.604Z,23.04
2022-08-23T07:54:07.942Z,23.18
2022-08-23T07:56:44.439Z,23.28
2022-08-23T07:59:47.783Z,23.39
2022-08-23T08:02:53.740Z,23.54
2022-08-23T08:05:27.662Z,23.68
2022-08-23T08:07:56.901Z,23.80
2022-08-23T08:10:24.325Z,23.90
2022-08-23T08:12:51.926Z,24.01
2022-08-23T08:15:20.644Z,24.13
2022-08-23T08:17:55.068Z,24.26
2022-08-23T08:20:23.344Z,24.34
2022-08-23T08:23:11.463Z,24.48
2022-08-23T08:26:07.326Z,24.62
2022-08-23T08:28:37.660Z,24.77
2022-08-23T08:31:07.234Z,24.90
2022-08-23T08:33:34.503Z,24.96
2022-08-23T08:36:04.910Z,25.05
2022-08-23T08:38:47.902Z,25.14
2022-08-23T08:41:32.803Z,25.20
2022-08-23T08:44:16.826Z,25.24
2022-08-23T08:46:57.228Z,25.32
2022-08-23T08:50:03.838Z,25.44
2022-08-23T08:52:39.411Z,25.56
2022-08-23T08:55:38.131Z,25.73
2022-08-23T08:58:07.265Z,25.87
2022-08-23T09:00:38.826Z,26.01
2022-08-23T09:03:16.915Z,26.11
2022-08-23T09:06:16.294Z,26.16
2022-08-23T09:09:44.542Z,26.20
2022-08-23T09:12:53.353Z,26.20
2022-08-23T09:15:46.530Z,26.19
2022-08-23T09:18:17.239Z,26.22
2022-08-23T09:20:52.110Z,26.26
2022-08-23T09:23:32.324Z,26.30
2022-08-23T09:26:05.499Z,26.39
2022-08-23T09:28:38.159Z,26.61
2022-08-23T09:31:08.746Z,26.84
2022-08-23T09:33:46.047Z,27.07
2022-08-23T09:36:39.895Z,27.46
2022-08-23T09:39:35.508Z,27.78
2022-08-23T09:42:35.921Z,27.91
2022-08-23T09:45:35.189Z,27.97
2022-08-23T09:48:11.886Z,28.15
2022-08-23T09:50:57.923Z,28.34
2022-08-23T09:53:28.204Z,28.49
2022-08-23T09:56:11.361Z,28.76
2022-08-23T09:58:54.122Z,29.17
2022-08-23T10:01:39.513Z,29.24
2022-08-23T10:04:41.450Z,29.32
2022-08-23T10:07:43.936Z,29.21
2022-08-23T10:10:23.920Z,29.17
2022-08-23T10:12:56.482Z,29.20
2022-08-23T10:16:07.764Z,29.26
2022-08-23T10:19:15.370Z,29.37
2022-08-23T10:22:04.978Z,29.44
2022-08-23T10:24:45.365Z,29.55
2022-08-23T10:27:50.727Z,29.66
2022-08-23T10:30:34.271Z,29.87
2022-08-23T10:33:26.676Z,30.15
2022-08-23T10:36:28.121Z,30.36
2022-08-23T10:39:30.357Z,30.53
2022-08-23T10:42:41.662Z,30.65
2022-08-23T10:45:36.334Z,30.72
2022-08-23T10:48:38.412Z,30.74
2022-08-23T10:51:22.631Z,30.73
2022-08-23T10:54:06.246Z,30.74
2022-08-23T10:56:42.935Z,30.78
2022-08-23T10:59:24.895Z,30.85
2022-08-23T11:02:29.605Z,31.06
2022-08-23T11:05:32.248Z,31.24
2022-08-23T11:08:29.934Z,31.43
2022-08-23T11:10:58.178Z,31.76
2022-08-23T11:13:35.235Z,31.55
2022-08-23T11:16:15.914Z,31.56
2022-08-23T11:18:51.309Z,31.67
2022-08-23T11:21:33.386Z,31.73
2022-08-23T11:24:05.505Z,31.78
2022-08-23T11:26:37.736Z,31.77
2022-08-23T11:29:08.252Z,31.92
2022-08-23T11:32:24.990Z,31.82
2022-08-23T11:35:30.362Z,31.90
2022-08-23T11:38:05.266Z,31.98
2022-08-23T11:41:18.722Z,32.05
2022-08-23T11:43:57.167Z,32.35
2022-08-23T11:46:32.468Z,32.47
2022-08-23T11:49:31.907Z,32.54
2022-08-23T11:52:49.774Z,32.63
2022-08-23T11:56:05.604Z,32.69
2022-08-23T11:59:41.546Z,32.72
2022-08-23T12:02:34.664Z,32.73
2022-08-23T12:05:46.694Z,32.85
2022-08-23T12:08:27.607Z,32.99
2022-08-23T12:10:54.986Z,33.03
2022-08-23T12:13:22.749Z,33.10
2022-08-23T12:16:17.511Z,33.08
2022-08-23T12:18:52.809Z,33.07
2022-08-23T12:21:45.751Z,33.00
2022-08-23T12:24:25.914Z,32.89
2022-08-23T12:27:36.675Z,32.95
2022-08-23T12:30:20.314Z,32.97
2022-08-23T12:33:26.173Z,33.05
2022-08-23T12:36:35.765Z,33.09
2022-08-23T12:39:23.890Z,33.11
2022-08-23T12:42:04.351Z,33.22
2022-08-23T12:44:34.453Z,33.29
2022-08-23T12:47:20.472Z,33.35
2022-08-23T12:50:09.185Z,33.44
2022-08-23T12:52:38.287Z,33.53
2022-08-23T12:55:18.906Z,33.61
2022-08-23T12:57:56.110Z,33.70
2022-08-23T13:00:43.429Z,33.85
2022-08-23T13:03:27.742Z,33.95
2022-08-23T13:06:12.938Z,34.04
2022-08-23T13:08:57.991Z,34.03
2022-08-23T13:11:31.389Z,34.04
2022-08-23T13:13:59.396Z,34.05
2022-08-23T13:16:36.594Z,34.03
2022-08-23T13:19:31.706Z,34.00
2022-08-23T13:22:22.613Z,34.02
2022-08-23T13:25:31.664Z,33.98
2022-08-23T13:28:27.166Z,33.96
2022-08-23T13:31:08.675Z,34.00
2022-08-23T13:33:37.251Z,34.18
2022-08-23T13:36:16.482Z,34.26
2022-08-23T13:38:45.167Z,34.31
2022-08-23T13:41:38.827Z,34.37
2022-08-23T13:44:09.977Z,34.35
2022-08-23T13:46:47.742Z,34.33
2022-08-23T13:49:27.458Z,34.31
2022-08-23T13:52:32.957Z,34.31
2022-08-23T13:54:52.598Z,34.51
2022-08-23T13:57:22.170Z,34.49
2022-08-23T13:59:56.095Z,34.45
2022-08-23T14:02:24.949Z,34.41
2022-08-23T14:04:52.469Z,34.45
2022-08-23T14:07:19.952Z,34.49
2022-08-23T14:09:50.090Z,34.53
2022-08-23T14:12:24.832Z,34.53
2022-08-23T14:14:57.633Z,34.46
2022-08-23T14:17:26.099Z,34.53
2022-08-23T14:22:41.552Z,34.49
2022-08-23T14:25:10.787Z,34.52
2022-08-23T14:27:41.854Z,34.55
2022-08-23T14:30:22.782Z,34.63
2022-08-23T14:32:50.271Z,34.58
2022-08-23T14:35:17.879Z,34.50
2022-08-23T14:40:36.482Z,34.49
2022-08-23T14:43:05.725Z,34.43
2022-08-23T14:45:32.883Z,34.43
2022-08-23T14:48:00.694Z,34.42
2022-08-23T14:50:28.701Z,34.47
2022-08-23T14:52:57.547Z,34.42
2022-08-23T14:55:25.382Z,34.37
2022-08-23T14:57:52.602Z,34.31
2022-08-23T15:00:19.955Z,34.28
2022-08-23T15:02:50.042Z,34.24
2022-08-23T15:05:18.309Z,34.12
2022-08-23T15:07:45.918Z,34.06
2022-08-23T15:13:19.532Z,33.92
2022-08-23T15:15:51.332Z,33.80
2022-08-23T15:18:19.276Z,33.72
2022-08-23T15:20:47.504Z,33.64
2022-08-23T15:23:15.436Z,33.69
2022-08-23T15:25:44.827Z,33.63
2022-08-23T15:28:16.754Z,33.49
2022-08-23T15:30:46.045Z,33.49
2022-08-23T15:33:13.604Z,33.44
2022-08-23T15:35:48.944Z,33.30
2022-08-23T15:38:22.979Z,33.31
2022-08-23T15:40:53.619Z,33.33
2022-08-23T15:43:25.862Z,33.31
2022-08-23T15:46:12.395Z,33.23
2022-08-23T15:48:50.293Z,33.20
2022-08-23T15:51:19.163Z,33.21
2022-08-23T15:53:47.890Z,33.15
2022-08-23T15:56:28.878Z,33.10
2022-08-23T15:58:56.621Z,33.00
2022-08-23T16:01:25.609Z,32.95
2022-08-23T16:03:53.507Z,32.88
2022-08-23T16:06:21.909Z,32.82
2022-08-23T16:08:52.496Z,32.77
2022-08-23T16:11:21.150Z,32.71
2022-08-23T16:13:50.088Z,32.70
2022-08-23T16:16:27.285Z,32.66
2022-08-23T16:18:56.934Z,32.66
2022-08-23T16:21:27.350Z,32.63
2022-08-23T16:23:56.594Z,32.60
2022-08-23T16:26:35.112Z,32.59
2022-08-23T16:29:08.682Z,32.57
2022-08-23T16:31:39.230Z,32.47
2022-08-23T16:34:13.813Z,32.40
2022-08-23T16:36:45.013Z,32.35
2022-08-23T16:39:14.614Z,32.30
2022-08-23T16:41:42.168Z,32.27
2022-08-23T16:44:09.885Z,32.24
2022-08-23T16:46:41.219Z,32.19
2022-08-23T16:49:10.806Z,32.15
2022-08-23T16:51:38.306Z,32.13
2022-08-23T16:54:05.910Z,32.07
2022-08-23T16:56:34.036Z,31.98
2022-08-23T16:59:04.550Z,31.92
2022-08-23T17:01:49.380Z,31.87
2022-08-23T17:04:18.476Z,31.79
2022-08-23T17:06:46.260Z,31.69
2022-08-23T17:09:15.482Z,31.59
2022-08-23T17:11:44.315Z,31.49
2022-08-23T17:14:12.661Z,31.37
2022-08-23T17:16:41.883Z,31.26
2022-08-23T17:19:10.966Z,31.14
2022-08-23T17:21:38.773Z,31.02
2022-08-23T17:24:06.331Z,30.93
2022-08-23T17:26:34.050Z,30.82
2022-08-23T17:29:04.594Z,30.74
2022-08-23T17:31:31.864Z,30.63
2022-08-23T17:34:11.372Z,30.52
2022-08-23T17:36:51.091Z,30.37
2022-08-23T17:39:22.857Z,30.26
2022-08-23T17:41:51.078Z,30.14
2022-08-23T17:44:18.335Z,30.03
2022-08-23T17:46:47.128Z,29.88
2022-08-23T17:49:16.526Z,29.75
2022-08-23T17:51:44.557Z,29.64
2022-08-23T17:54:16.080Z,29.53
2022-08-23T17:56:50.193Z,29.42
2022-08-23T17:59:20.366Z,29.29
2022-08-23T18:01:47.866Z,29.17
2022-08-23T18:04:14.908Z,29.05
2022-08-23T18:06:42.477Z,28.91
2022-08-23T18:09:10.810Z,28.79
2022-08-23T18:11:37.965Z,28.72
2022-08-23T18:14:05.995Z,28.65
2022-08-23T18:16:35.718Z,28.57
2022-08-23T18:19:07.112Z,28.44
2022-08-23T18:21:41.482Z,28.35
2022-08-23T18:24:09.551Z,28.23
2022-08-23T18:26:56.693Z,28.18
2022-08-23T18:29:24.437Z,28.10
2022-08-23T18:31:51.937Z,28.03
2022-08-23T18:34:19.967Z,27.94
2022-08-23T18:36:47.740Z,27.88
2022-08-23T18:39:15.996Z,27.78
2022-08-23T18:41:43.779Z,27.71
2022-08-23T18:44:11.730Z,27.64
2022-08-23T18:46:42.123Z,27.56
2022-08-23T18:49:12.117Z,27.48
2022-08-23T18:51:41.531Z,27.39
2022-08-23T18:54:09.690Z,27.34
2022-08-23T18:56:37.277Z,27.26
2022-08-23T18:59:06.146Z,27.20
2022-08-23T19:01:40.591Z,27.13
2022-08-23T19:04:10.186Z,27.07
2022-08-23T19:06:38.632Z,26.99
2022-08-23T19:09:08.106Z,26.91
2022-08-23T19:11:39.693Z,26.85
2022-08-23T19:14:09.958Z,26.77
2022-08-23T19:16:38.061Z,26.71
2022-08-23T19:19:06.842Z,26.63
2022-08-23T19:21:34.139Z,26.57
2022-08-23T19:24:02.414Z,26.53
2022-08-23T19:26:34.315Z,26.45
2022-08-23T19:29:07.789Z,26.34
2022-08-23T19:31:41.735Z,26.26
2022-08-23T19:34:11.345Z,26.20
2022-08-23T19:36:48.343Z,26.15
2022-08-23T19:39:19.866Z,26.07
2022-08-23T19:41:48.556Z,25.91
2022-08-23T19:44:17.722Z,25.88
2022-08-23T19:46:45.717Z,25.85
2022-08-23T19:49:14.586Z,25.74
2022-08-23T19:51:43.787Z,25.65
2022-08-23T19:54:13.600Z,25.64
2022-08-23T19:56:49.821Z,25.58
2022-08-23T19:59:23.306Z,25.51
2022-08-23T20:01:53.523Z,25.37
2022-08-23T20:04:23.111Z,25.25
2022-08-23T20:06:51.045Z,25.18
2022-08-23T20:09:21.465Z,25.06
2022-08-23T20:11:52.611Z,25.03
2022-08-23T20:14:23.188Z,24.94
2022-08-23T20:16:51.020Z,24.81
2022-08-23T20:19:18.675Z,24.73
2022-08-23T20:21:46.136Z,24.69
2022-08-23T20:24:15.091Z,24.70
2022-08-23T20:26:46.802Z,24.78
2022-08-23T20:29:21.153Z,24.80
2022-08-23T20:31:56.061Z,24.79
2022-08-23T20:34:26.509Z,24.63
2022-08-23T20:36:56.197Z,24.57
2022-08-23T20:39:25.688Z,24.56
2022-08-23T20:41:53.980Z,24.57
2022-08-23T20:44:25.826Z,24.55
2022-08-23T20:46:56.025Z,24.53
2022-08-23T20:49:25.949Z,24.46
2022-08-23T20:51:52.998Z,24.40
2022-08-23T20:54:20.288Z,24.36
2022-08-23T20:56:51.448Z,24.30
2022-08-23T20:59:19.811Z,24.27
2022-08-23T21:01:48.092Z,24.23
2022-08-23T21:04:15.857Z,24.17
2022-08-23T21:06:50.559Z,24.08
2022-08-23T21:09:23.423Z,24.07
2022-08-23T21:11:53.296Z,24.01
2022-08-23T21:14:20.883Z,23.97
2022-08-23T21:16:48.126Z,23.92
2022-08-23T21:19:17.080Z,23.87
2022-08-23T21:21:44.750Z,23.90
2022-08-23T21:24:13.429Z,23.93
2022-08-23T21:26:41.724Z,23.85
2022-08-23T21:29:10.620Z,23.84
2022-08-23T21:31:39.189Z,23.73
2022-08-23T21:34:08.166Z,23.72
2022-08-23T21:36:36.299Z,23.73
2022-08-23T21:39:05.141Z,23.79
2022-08-23T21:41:40.584Z,23.74
2022-08-23T21:44:12.333Z,23.72
2022-08-23T21:46:40.946Z,23.67
2022-08-23T21:49:09.206Z,23.64
2022-08-23T21:51:40.720Z,23.65
2022-08-23T21:54:10.882Z,23.70
2022-08-23T21:56:39.134Z,23.69
2022-08-23T21:59:10.443Z,23.69
2022-08-23T22:01:37.803Z,23.70
2022-08-23T22:04:09.830Z,23.70
2022-08-23T22:06:38.215Z,23.69
2022-08-23T22:09:09.885Z,23.63
2022-08-23T22:11:40.583Z,23.59
2022-08-23T22:14:15.409Z,23.60
2022-08-23T22:16:54.989Z,23.59
2022-08-23T22:19:22.972Z,23.61
2022-08-23T22:21:52.376Z,23.59
2022-08-23T22:24:25.475Z,23.58
2022-08-23T22:26:55.267Z,23.55
2022-08-23T22:29:23.636Z,23.53
2022-08-23T22:31:51.318Z,23.50
2022-08-23T22:34:18.658Z,23.46
2022-08-23T22:36:46.251Z,23.41
2022-08-23T22:39:20.244Z,23.38
2022-08-23T22:41:47.261Z,23.34
2022-08-23T22:44:14.308Z,23.29
2022-08-23T22:46:42.216Z,23.30
2022-08-23T22:49:09.478Z,23.29
2022-08-23T22:51:38.466Z,23.30
2022-08-23T22:54:09.716Z,23.21
2022-08-23T22:56:43.289Z,23.22
2022-08-23T22:59:12.359Z,23.17
2022-08-23T23:01:47.986Z,23.13
2022-08-23T23:04:18.837Z,23.12
2022-08-23T23:06:48.861Z,23.08
2022-08-23T23:09:16.971Z,23.09
2022-08-23T23:11:45.739Z,23.12
2022-08-23T23:14:16.419Z,23.16
2022-08-23T23:16:44.909Z,23.13
2022-08-23T23:19:31.365Z,23.07
2022-08-23T23:21:59.736Z,23.04
2022-08-23T23:24:31.915Z,23.04
2022-08-23T23:27:00.677Z,23.02
2022-08-23T23:29:30.002Z,23.04
2022-08-23T23:31:57.910Z,23.03
2022-08-23T23:34:26.649Z,23.01
2022-08-23T23:36:57.366Z,23.00
2022-08-23T23:39:25.339Z,22.96
2022-08-23T23:41:53.176Z,22.88
2022-08-23T23:44:24.317Z,22.88
2022-08-23T23:47:01.815Z,22.80
2022-08-23T23:49:33.219Z,22.80
2022-08-23T23:52:04.664Z,22.81
2022-08-23T23:54:33.655Z,22.77
2022-08-23T23:57:02.397Z,22.77
2022-08-23T23:59:29.800Z,22.77
